createdAt,value
2018-09-11T00:00:35.100Z,2.40
2018-09-11T00:03:04.124Z,2.60
2018-09-11T00:05:33.878Z,2.27
2018-09-11T00:08:03.520Z,1.98
2018-09-11T00:10:32.671Z,2.22
2018-09-11T00:13:01.816Z,2.22
2018-09-11T00:15:30.935Z,2.15
2018-09-11T00:17:59.993Z,2.00
2018-09-11T00:20:28.979Z,2.12
2018-09-11T00:22:57.969Z,2.08
2018-09-11T00:25:26.961Z,2.52
2018-09-11T00:27:55.935Z,1.87
2018-09-11T00:30:25.054Z,3.10
2018-09-11T00:32:54.055Z,2.35
2018-09-11T00:35:23.164Z,2.33
2018-09-11T00:37:52.117Z,2.35
2018-09-11T00:40:21.082Z,1.98
2018-09-11T00:42:50.107Z,1.98
2018-09-11T00:45:19.142Z,2.40
2018-09-11T00:47:48.131Z,2.37
2018-09-11T00:50:17.142Z,2.90
2018-09-11T00:52:46.226Z,1.67
2018-09-11T00:55:15.193Z,2.22
2018-09-11T00:57:44.366Z,2.37
2018-09-11T01:00:13.349Z,2.40
2018-09-11T01:02:42.936Z,2.40
2018-09-11T01:05:11.955Z,1.72
2018-09-11T01:07:41.493Z,2.20
2018-09-11T01:10:10.994Z,2.20
2018-09-11T01:12:42.931Z,1.87
2018-09-11T01:15:11.898Z,2.25
2018-09-11T01:17:40.923Z,2.27
2018-09-11T01:20:10.236Z,3.08
2018-09-11T01:22:39.487Z,2.25
2018-09-11T01:25:08.668Z,2.45
2018-09-11T01:27:37.788Z,2.60
2018-09-11T01:30:06.995Z,2.08
2018-09-11T01:32:36.067Z,2.40
2018-09-11T01:35:05.076Z,2.12
2018-09-11T01:37:34.239Z,2.02
2018-09-11T01:40:03.189Z,2.35
2018-09-11T01:42:32.309Z,1.70
2018-09-11T01:45:01.517Z,1.98
2018-09-11T01:47:30.566Z,2.05
2018-09-11T01:49:59.692Z,2.02
2018-09-11T01:52:28.708Z,2.10
2018-09-11T01:54:57.860Z,2.50
2018-09-11T01:57:26.934Z,2.67
2018-09-11T01:59:56.082Z,2.05
2018-09-11T02:02:25.101Z,2.02
2018-09-11T02:04:54.666Z,1.90
2018-09-11T02:07:23.683Z,1.95
2018-09-11T02:09:52.592Z,2.27
2018-09-11T02:12:21.612Z,1.92
2018-09-11T02:14:50.578Z,1.65
2018-09-11T02:17:19.585Z,2.33
2018-09-11T02:19:48.611Z,1.90
2018-09-11T02:22:17.561Z,1.92
2018-09-11T02:24:46.590Z,1.95
2018-09-11T02:27:15.549Z,2.27
2018-09-11T02:29:44.508Z,2.42
2018-09-11T02:32:13.533Z,2.30
2018-09-11T02:34:42.631Z,2.20
2018-09-11T02:37:11.774Z,2.17
2018-09-11T02:39:40.714Z,1.75
2018-09-11T02:42:09.693Z,1.77
2018-09-11T02:44:38.706Z,1.62
2018-09-11T02:47:07.854Z,1.90
2018-09-11T02:49:37.002Z,1.82
2018-09-11T02:52:06.358Z,1.82
2018-09-11T02:54:35.450Z,1.90
2018-09-11T02:57:04.747Z,2.15
2018-09-11T02:59:33.878Z,2.00
2018-09-11T03:02:02.911Z,1.85
2018-09-11T03:04:32.011Z,3.17
2018-09-11T03:07:01.143Z,1.65
2018-09-11T03:09:30.273Z,1.42
2018-09-11T03:11:59.547Z,1.92
2018-09-11T03:14:28.534Z,1.90
2018-09-11T03:16:57.573Z,1.65
2018-09-11T03:19:26.710Z,1.42
2018-09-11T03:21:55.760Z,2.10
2018-09-11T03:24:24.701Z,1.55
2018-09-11T03:26:53.670Z,1.80
2018-09-11T03:29:22.640Z,1.60
2018-09-11T03:31:51.784Z,1.98
2018-09-11T03:34:20.855Z,1.70
2018-09-11T03:36:50.099Z,1.85
2018-09-11T03:39:19.202Z,2.27
2018-09-11T03:41:48.165Z,1.60
2018-09-11T03:44:17.166Z,1.80
2018-09-11T03:46:46.099Z,1.50
2018-09-11T03:49:15.174Z,1.62
2018-09-11T03:51:44.184Z,1.70
2018-09-11T03:54:13.150Z,1.72
2018-09-11T03:56:42.155Z,1.47
2018-09-11T03:59:11.274Z,1.70
2018-09-11T04:01:40.251Z,1.80
2018-09-11T04:04:09.245Z,1.55
2018-09-11T04:06:38.255Z,1.57
2018-09-11T04:09:09.965Z,1.32
2018-09-11T04:11:39.015Z,1.42
2018-09-11T04:14:07.968Z,1.77
2018-09-11T04:16:37.162Z,1.70
2018-09-11T04:19:06.171Z,1.65
2018-09-11T04:21:35.152Z,1.72
2018-09-11T04:24:04.248Z,1.30
2018-09-11T04:26:33.214Z,1.45
2018-09-11T04:29:02.351Z,1.65
2018-09-11T04:31:31.301Z,1.67
2018-09-11T04:34:00.294Z,1.57
2018-09-11T04:36:29.379Z,1.55
2018-09-11T04:38:58.264Z,1.12
2018-09-11T04:41:27.235Z,1.30
2018-09-11T04:43:56.193Z,1.55
2018-09-11T04:46:25.166Z,1.47
2018-09-11T04:48:54.148Z,1.40
2018-09-11T04:51:23.148Z,1.80
2018-09-11T04:53:52.091Z,1.40
2018-09-11T04:56:21.064Z,1.80
2018-09-11T04:58:50.425Z,1.20
2018-09-11T05:01:19.379Z,1.10
2018-09-11T05:03:48.461Z,1.35
2018-09-11T05:06:17.451Z,1.57
2018-09-11T05:08:46.400Z,1.35
2018-09-11T05:11:15.378Z,2.37
2018-09-11T05:13:44.413Z,1.15
2018-09-11T05:16:13.433Z,1.40
2018-09-11T05:18:42.402Z,1.50
2018-09-11T05:21:11.563Z,1.35
2018-09-11T05:23:40.487Z,1.10
2018-09-11T05:26:09.491Z,1.70
2018-09-11T05:28:38.451Z,1.70
2018-09-11T05:31:07.440Z,1.52
2018-09-11T05:33:36.491Z,1.05
2018-09-11T05:36:05.474Z,1.32
2018-09-11T05:38:34.423Z,1.15
2018-09-11T05:41:03.368Z,1.40
2018-09-11T05:43:32.295Z,2.25
2018-09-11T05:46:01.557Z,1.50
2018-09-11T05:48:30.693Z,1.35
2018-09-11T05:50:59.675Z,1.37
2018-09-11T05:53:28.643Z,1.20
2018-09-11T05:55:57.597Z,1.30
2018-09-11T05:58:26.644Z,1.50
2018-09-11T06:00:55.559Z,1.82
2018-09-11T06:03:24.620Z,1.72
2018-09-11T06:05:53.582Z,1.50
2018-09-11T06:08:22.568Z,1.22
2018-09-11T06:10:51.512Z,1.20
2018-09-11T06:13:20.533Z,1.15
2018-09-11T06:15:49.586Z,1.20
2018-09-11T06:18:18.648Z,1.42
2018-09-11T06:20:47.635Z,1.35
2018-09-11T06:23:16.650Z,1.30
2018-09-11T06:25:45.670Z,1.60
2018-09-11T06:28:14.779Z,1.52
2018-09-11T06:30:43.765Z,1.55
2018-09-11T06:33:12.693Z,1.32
2018-09-11T06:35:42.075Z,1.45
2018-09-11T06:38:11.020Z,1.17
2018-09-11T06:40:40.019Z,1.60
2018-09-11T06:43:09.055Z,1.67
2018-09-11T06:45:38.006Z,1.87
2018-09-11T06:48:07.005Z,1.42
2018-09-11T06:50:35.991Z,1.40
2018-09-11T06:53:05.012Z,2.02
2018-09-11T06:55:34.027Z,1.70
2018-09-11T06:58:03.030Z,1.45
2018-09-11T07:00:32.149Z,1.70
2018-09-11T07:03:01.102Z,1.55
2018-09-11T07:05:30.183Z,2.08
2018-09-11T07:07:59.152Z,1.52
2018-09-11T07:10:28.121Z,1.98
2018-09-11T07:12:57.072Z,2.50
2018-09-11T07:15:26.516Z,2.12
2018-09-11T07:17:55.534Z,1.80
2018-09-11T07:20:24.773Z,2.20
2018-09-11T07:22:53.817Z,1.65
2018-09-11T07:25:23.318Z,1.87
2018-09-11T07:27:52.320Z,1.67
2018-09-11T07:30:21.348Z,1.80
2018-09-11T07:32:50.299Z,1.82
2018-09-11T07:35:19.236Z,2.30
2018-09-11T07:37:48.257Z,3.17
2018-09-11T07:40:17.304Z,2.05
2018-09-11T07:42:46.293Z,1.92
2018-09-11T07:45:15.275Z,2.08
2018-09-11T07:47:44.288Z,2.10
2018-09-11T07:50:13.337Z,1.72
2018-09-11T07:52:42.374Z,2.33
2018-09-11T07:55:11.284Z,1.90
2018-09-11T07:57:40.308Z,1.90
2018-09-11T08:00:09.248Z,2.00
2018-09-11T08:02:38.244Z,2.10
2018-09-11T08:05:07.909Z,2.37
2018-09-11T08:07:37.720Z,2.00
2018-09-11T08:10:06.740Z,2.25
2018-09-11T08:12:35.709Z,2.37
2018-09-11T08:15:04.831Z,2.37
2018-09-11T08:17:33.893Z,2.08
2018-09-11T08:20:02.954Z,2.62
2018-09-11T08:22:31.921Z,2.17
2018-09-11T08:25:00.918Z,2.47
2018-09-11T08:27:29.917Z,2.25
2018-09-11T08:29:58.984Z,2.08
2018-09-11T08:32:27.966Z,1.87
2018-09-11T08:34:56.942Z,2.27
2018-09-11T08:37:25.906Z,2.10
2018-09-11T08:39:55.023Z,2.20
2018-09-11T08:42:23.963Z,1.75
2018-09-11T08:44:52.967Z,3.27
2018-09-11T08:47:21.949Z,1.50
2018-09-11T08:49:50.922Z,2.62
2018-09-11T08:52:19.869Z,1.85
2018-09-11T08:54:49.223Z,2.08
2018-09-11T08:57:18.182Z,1.52
2018-09-11T08:59:47.130Z,1.60
2018-09-11T09:02:16.095Z,1.82
2018-09-11T09:04:45.119Z,2.62
2018-09-11T09:07:14.067Z,2.12
2018-09-11T09:09:43.418Z,1.70
2018-09-11T09:12:12.401Z,2.02
2018-09-11T09:14:41.380Z,2.05
2018-09-11T09:17:10.354Z,1.75
2018-09-11T09:19:39.341Z,2.08
2018-09-11T09:22:08.271Z,1.80
2018-09-11T09:24:37.281Z,2.00
2018-09-11T09:27:06.239Z,1.98
2018-09-11T09:29:35.400Z,1.50
2018-09-11T09:32:04.360Z,2.50
2018-09-11T09:34:33.373Z,1.52
2018-09-11T09:37:02.446Z,1.67
2018-09-11T09:39:31.288Z,1.67
2018-09-11T09:42:00.323Z,1.90
2018-09-11T09:44:29.265Z,1.67
2018-09-11T09:46:58.236Z,2.25
2018-09-11T09:49:27.190Z,1.55
2018-09-11T09:51:56.141Z,1.50
2018-09-11T09:54:25.166Z,1.30
2018-09-11T09:56:54.171Z,1.62
2018-09-11T09:59:23.139Z,1.52
2018-09-11T10:01:57.373Z,1.47
2018-09-11T10:04:26.371Z,1.30
2018-09-11T10:06:55.306Z,1.20
2018-09-11T10:09:24.281Z,2.50
2018-09-11T10:11:53.299Z,1.60
2018-09-11T10:14:22.211Z,1.37
2018-09-11T10:16:51.162Z,1.52
2018-09-11T10:19:20.335Z,1.30
2018-09-11T10:21:49.382Z,1.30
2018-09-11T10:24:18.306Z,1.30
2018-09-11T10:26:47.315Z,1.40
2018-09-11T10:29:16.446Z,1.10
2018-09-11T10:31:45.580Z,1.27
2018-09-11T10:34:14.691Z,1.47
2018-09-11T10:36:43.646Z,2.65
2018-09-11T10:39:12.615Z,1.20
2018-09-11T10:41:41.490Z,1.30
2018-09-11T10:44:10.555Z,1.52
2018-09-11T10:46:39.528Z,1.47
2018-09-11T10:49:08.669Z,1.37
2018-09-11T10:51:37.907Z,1.30
2018-09-11T10:54:06.863Z,1.50
2018-09-11T10:56:35.970Z,1.30
2018-09-11T10:59:05.117Z,1.37
2018-09-11T11:01:34.089Z,1.22
2018-09-11T11:04:03.050Z,1.30
2018-09-11T11:06:32.040Z,1.30
2018-09-11T11:09:01.346Z,1.27
2018-09-11T11:11:30.356Z,1.17
2018-09-11T11:13:59.517Z,1.47
2018-09-11T11:16:28.530Z,1.10
2018-09-11T11:18:57.472Z,1.10
2018-09-11T11:21:26.397Z,1.27
2018-09-11T11:23:55.358Z,1.45
2018-09-11T11:26:24.431Z,1.37
2018-09-11T11:28:53.427Z,1.20
2018-09-11T11:31:22.450Z,1.07
2018-09-11T11:33:51.395Z,1.00
2018-09-11T11:36:20.547Z,1.10
2018-09-11T11:38:49.512Z,1.20
2018-09-11T11:41:19.182Z,1.37
2018-09-11T11:43:48.191Z,1.00
2018-09-11T11:46:17.209Z,1.22
2018-09-11T11:48:46.305Z,1.57
2018-09-11T11:51:15.711Z,1.47
2018-09-11T11:53:44.740Z,1.27
2018-09-11T11:56:13.700Z,1.50
2018-09-11T11:58:42.704Z,1.22
2018-09-11T12:01:11.668Z,1.20
2018-09-11T12:03:40.664Z,0.93
2018-09-11T12:06:09.620Z,1.22
2018-09-11T12:08:38.654Z,1.20
2018-09-11T12:11:07.588Z,1.20
2018-09-11T12:13:36.540Z,1.27
2018-09-11T12:16:05.545Z,1.40
2018-09-11T12:18:34.549Z,1.40
2018-09-11T12:21:03.500Z,1.37
2018-09-11T12:23:32.686Z,1.40
2018-09-11T12:26:01.704Z,1.42
2018-09-11T12:28:30.650Z,1.75
2018-09-11T12:31:00.445Z,1.05
2018-09-11T12:33:29.408Z,1.42
2018-09-11T12:35:58.369Z,1.30
2018-09-11T12:38:27.397Z,1.60
2018-09-11T12:40:56.333Z,1.52
2018-09-11T12:43:25.312Z,1.10
2018-09-11T12:45:54.325Z,1.20
2018-09-11T12:48:23.656Z,1.57
2018-09-11T12:50:52.298Z,2.00
2018-09-11T12:53:21.372Z,1.20
2018-09-11T12:55:50.367Z,1.50
2018-09-11T12:58:19.484Z,1.32
2018-09-11T13:00:48.529Z,1.32
2018-09-11T13:03:17.521Z,1.77
2018-09-11T13:05:46.503Z,1.20
2018-09-11T13:08:15.515Z,1.27
2018-09-11T13:10:44.534Z,1.20
2018-09-11T13:13:13.864Z,1.20
2018-09-11T13:15:42.816Z,1.40
2018-09-11T13:18:11.862Z,2.12
2018-09-11T13:20:40.831Z,1.00
2018-09-11T13:23:09.814Z,1.25
2018-09-11T13:25:38.797Z,1.40
2018-09-11T13:28:07.741Z,1.20
2018-09-11T13:30:36.734Z,1.50
2018-09-11T13:33:06.278Z,1.15
2018-09-11T13:35:35.208Z,1.30
2018-09-11T13:38:04.174Z,1.10
2018-09-11T13:40:33.220Z,1.47
2018-09-11T13:43:02.162Z,1.50
2018-09-11T13:45:31.135Z,1.45
2018-09-11T13:48:00.077Z,1.30
2018-09-11T13:50:29.057Z,1.30
2018-09-11T13:52:58.057Z,1.22
2018-09-11T13:55:27.128Z,1.12
2018-09-11T13:57:56.241Z,1.57
2018-09-11T14:00:25.178Z,1.20
2018-09-11T14:02:54.332Z,2.25
2018-09-11T14:05:23.236Z,1.50
2018-09-11T14:07:52.213Z,1.40
2018-09-11T14:10:21.571Z,1.40
2018-09-11T14:12:50.524Z,1.20
2018-09-11T14:15:19.539Z,1.35
2018-09-11T14:17:48.837Z,1.30
2018-09-11T14:20:17.840Z,1.40
2018-09-11T14:22:50.097Z,1.02
2018-09-11T14:25:29.018Z,1.02
2018-09-11T14:27:57.959Z,1.60
2018-09-11T14:30:26.929Z,1.20
2018-09-11T14:32:55.928Z,1.10
2018-09-11T14:35:24.922Z,1.60
2018-09-11T14:37:54.071Z,1.52
2018-09-11T14:40:22.979Z,1.62
2018-09-11T14:42:51.964Z,1.57
2018-09-11T14:45:20.962Z,1.70
2018-09-11T14:47:49.916Z,1.70
2018-09-11T14:50:18.849Z,1.30
2018-09-11T14:52:47.856Z,1.50
2018-09-11T14:55:16.886Z,1.40
2018-09-11T14:57:46.069Z,1.30
2018-09-11T15:00:15.033Z,2.33
2018-09-11T15:02:44.008Z,1.87
2018-09-11T15:05:13.093Z,1.70
2018-09-11T15:07:42.014Z,1.10
2018-09-11T15:10:11.379Z,1.50
2018-09-11T15:12:40.322Z,1.05
2018-09-11T15:15:09.301Z,1.22
2018-09-11T15:17:38.257Z,1.55
2018-09-11T15:20:07.785Z,1.30
2018-09-11T15:22:36.867Z,1.22
2018-09-11T15:25:05.768Z,1.10
2018-09-11T15:27:34.811Z,1.50
2018-09-11T15:30:03.997Z,1.12
2018-09-11T15:32:32.854Z,1.10
2018-09-11T15:35:02.156Z,1.25
2018-09-11T15:37:31.200Z,1.50
2018-09-11T15:40:00.188Z,1.47
2018-09-11T15:42:29.250Z,1.30
2018-09-11T15:44:58.533Z,1.27
2018-09-11T15:47:27.481Z,1.45
2018-09-11T15:49:56.424Z,1.60
2018-09-11T15:52:25.418Z,1.40
2018-09-11T15:54:54.421Z,1.62
2018-09-11T15:57:27.170Z,1.40
2018-09-11T15:59:56.404Z,1.62
2018-09-11T16:02:25.349Z,1.22
2018-09-11T16:04:54.330Z,1.20
2018-09-11T16:07:23.382Z,1.12
2018-09-11T16:09:52.390Z,1.30
2018-09-11T16:12:21.543Z,1.12
2018-09-11T16:14:50.800Z,1.20
2018-09-11T16:17:19.755Z,1.10
2018-09-11T16:19:48.798Z,1.20
2018-09-11T16:22:17.785Z,1.27
2018-09-11T16:24:46.783Z,1.07
2018-09-11T16:27:15.730Z,1.30
2018-09-11T16:29:44.814Z,1.00
2018-09-11T16:32:13.797Z,1.30
2018-09-11T16:34:42.761Z,1.20
2018-09-11T16:37:11.728Z,1.22
2018-09-11T16:39:40.786Z,1.10
2018-09-11T16:42:09.759Z,1.00
2018-09-11T16:44:38.738Z,1.10
2018-09-11T16:47:07.856Z,1.10
2018-09-11T16:49:37.171Z,1.00
2018-09-11T16:52:06.391Z,1.30
2018-09-11T16:54:35.374Z,1.10
2018-09-11T16:57:04.394Z,1.30
2018-09-11T16:59:33.419Z,1.05
2018-09-11T17:02:02.470Z,1.20
2018-09-11T17:04:31.452Z,0.93
2018-09-11T17:07:00.447Z,1.30
2018-09-11T17:09:29.469Z,1.30
2018-09-11T17:11:59.457Z,1.20
2018-09-11T17:14:28.521Z,1.40
2018-09-11T17:16:57.554Z,1.25
2018-09-11T17:19:26.558Z,1.30
2018-09-11T17:21:55.970Z,1.27
2018-09-11T17:24:25.060Z,1.35
2018-09-11T17:26:54.072Z,1.50
2018-09-11T17:29:23.061Z,1.42
2018-09-11T17:31:52.075Z,1.55
2018-09-11T17:34:21.092Z,1.70
2018-09-11T17:36:50.460Z,1.37
2018-09-11T17:39:19.398Z,3.10
2018-09-11T17:41:48.418Z,1.80
2018-09-11T17:44:17.448Z,1.87
2018-09-11T17:46:46.440Z,1.90
2018-09-11T17:49:15.539Z,2.75
2018-09-11T17:51:44.496Z,2.50
2018-09-11T17:54:13.518Z,2.02
2018-09-11T17:56:42.556Z,2.35
2018-09-11T17:59:11.578Z,1.80
2018-09-11T18:01:40.601Z,2.22
2018-09-11T18:04:09.622Z,2.05
2018-09-11T18:06:38.621Z,2.02
2018-09-11T18:09:08.372Z,2.15
2018-09-11T18:11:37.407Z,1.87
2018-09-11T18:14:06.497Z,2.10
2018-09-11T18:16:35.512Z,1.75
2018-09-11T18:19:04.555Z,1.90
2018-09-11T18:21:33.555Z,2.15
2018-09-11T18:24:02.659Z,2.33
2018-09-11T18:26:31.755Z,2.22
2018-09-11T18:29:00.728Z,1.98
2018-09-11T18:31:29.774Z,2.17
2018-09-11T18:33:58.772Z,2.10
2018-09-11T18:36:28.563Z,1.70
2018-09-11T18:38:57.576Z,1.90
2018-09-11T18:41:26.602Z,2.70
2018-09-11T18:43:55.758Z,2.77
2018-09-11T18:46:24.722Z,3.12
2018-09-11T18:48:54.061Z,3.42
2018-09-11T18:51:23.116Z,3.27
2018-09-11T18:53:52.082Z,4.03
2018-09-11T18:56:21.334Z,5.33
2018-09-11T18:58:50.317Z,5.33
2018-09-11T19:01:19.311Z,5.67
2018-09-11T19:03:48.343Z,5.90
2018-09-11T19:06:17.426Z,6.60
2018-09-11T19:08:46.487Z,5.78
2018-09-11T19:11:15.808Z,5.70
2018-09-11T19:13:44.841Z,6.08
2018-09-11T19:16:13.861Z,5.78
2018-09-11T19:18:43.101Z,8.18
2018-09-11T19:21:12.125Z,8.08
2018-09-11T19:23:41.137Z,8.10
2018-09-11T19:26:10.216Z,7.35
2018-09-11T19:28:39.311Z,7.58
2018-09-11T19:31:08.338Z,7.40
2018-09-11T19:33:37.278Z,7.87
2018-09-11T19:36:06.359Z,7.65
2018-09-11T19:38:35.749Z,7.87
2018-09-11T19:41:04.749Z,7.87
2018-09-11T19:43:33.761Z,8.43
2018-09-11T19:46:02.687Z,8.30
2018-09-11T19:48:31.707Z,8.70
2018-09-11T19:51:01.626Z,9.03
2018-09-11T19:53:30.901Z,8.28
2018-09-11T19:55:59.971Z,9.05
2018-09-11T19:58:29.048Z,8.40
2018-09-11T20:00:58.061Z,7.65
2018-09-11T20:03:27.071Z,7.00
2018-09-11T20:05:56.052Z,8.63
2018-09-11T20:08:25.061Z,7.70
2018-09-11T20:10:54.200Z,8.18
2018-09-11T20:13:23.225Z,7.15
2018-09-11T20:15:52.274Z,8.58
2018-09-11T20:18:21.304Z,7.80
2018-09-11T20:20:50.315Z,7.90
2018-09-11T20:23:19.316Z,8.25
2018-09-11T20:25:48.373Z,8.33
2018-09-11T20:28:17.348Z,8.28
2018-09-11T20:30:46.356Z,8.48
2018-09-11T20:33:15.442Z,8.20
2018-09-11T20:35:44.438Z,8.13
2018-09-11T20:38:13.434Z,8.33
2018-09-11T20:40:42.493Z,8.25
2018-09-11T20:43:12.783Z,8.18
2018-09-11T20:45:41.774Z,7.08
2018-09-11T20:48:10.749Z,7.67
2018-09-11T20:50:39.750Z,7.00
2018-09-11T20:53:08.779Z,6.42
2018-09-11T20:55:37.757Z,7.12
2018-09-11T20:58:06.746Z,6.37
2018-09-11T21:00:36.091Z,6.78
2018-09-11T21:03:05.078Z,6.12
2018-09-11T21:05:34.044Z,6.37
2018-09-11T21:08:03.037Z,6.20
2018-09-11T21:10:32.014Z,5.70
2018-09-11T21:13:01.079Z,6.03
2018-09-11T21:15:30.057Z,5.35
2018-09-11T21:17:58.993Z,5.17
2018-09-11T21:20:28.014Z,6.12
2018-09-11T21:22:57.025Z,5.17
2018-09-11T21:25:25.987Z,5.08
2018-09-11T21:27:54.886Z,5.08
2018-09-11T21:30:23.909Z,5.42
2018-09-11T21:32:53.017Z,5.70
2018-09-11T21:35:22.032Z,5.80
2018-09-11T21:37:51.309Z,5.65
2018-09-11T21:40:20.364Z,5.40
2018-09-11T21:42:49.360Z,5.37
2018-09-11T21:45:18.340Z,5.72
2018-09-11T21:47:47.377Z,5.60
2018-09-11T21:50:16.483Z,5.72
2018-09-11T21:52:45.455Z,5.85
2018-09-11T21:55:14.462Z,6.42
2018-09-11T21:57:43.534Z,6.37
2018-09-11T22:00:13.382Z,6.92
2018-09-11T22:02:42.395Z,6.35
2018-09-11T22:05:11.622Z,7.35
2018-09-11T22:07:40.604Z,7.00
2018-09-11T22:10:10.873Z,6.72
2018-09-11T22:12:40.135Z,6.08
2018-09-11T22:15:10.403Z,6.58
2018-09-11T22:17:39.620Z,6.90
2018-09-11T22:20:09.005Z,6.87
2018-09-11T22:22:38.055Z,5.47
2018-09-11T22:27:56.243Z,6.37
2018-09-11T22:30:30.159Z,6.12
2018-09-11T22:33:00.028Z,5.90
2018-09-11T22:35:29.004Z,5.95
2018-09-11T22:37:59.067Z,6.10
2018-09-11T22:40:28.085Z,6.47
2018-09-11T22:42:57.102Z,6.17
2018-09-11T22:45:26.085Z,6.47
2018-09-11T22:47:55.216Z,6.20
2018-09-11T22:50:24.210Z,5.78
2018-09-11T22:52:53.612Z,5.58
2018-09-11T22:55:22.599Z,5.55
2018-09-11T22:57:51.680Z,6.53
2018-09-11T23:00:20.693Z,5.45
2018-09-11T23:02:49.715Z,5.47
2018-09-11T23:05:18.734Z,6.03
2018-09-11T23:07:47.693Z,5.60
2018-09-11T23:10:16.667Z,6.50
2018-09-11T23:12:45.733Z,5.90
2018-09-11T23:15:14.716Z,5.45
2018-09-11T23:17:43.668Z,6.80
2018-09-11T23:20:12.696Z,5.17
2018-09-11T23:22:41.673Z,5.45
2018-09-11T23:25:10.618Z,5.08
2018-09-11T23:27:40.216Z,5.20
2018-09-11T23:30:09.150Z,5.00
2018-09-11T23:32:38.071Z,5.28
2018-09-11T23:35:07.058Z,5.37
2018-09-11T23:37:36.156Z,4.65
2018-09-11T23:40:05.383Z,4.85
2018-09-11T23:42:34.390Z,4.80
2018-09-11T23:45:03.312Z,5.05
2018-09-11T23:47:32.294Z,4.30
2018-09-11T23:50:01.283Z,4.00
2018-09-11T23:52:30.274Z,4.37
2018-09-11T23:54:59.298Z,3.77
2018-09-11T23:57:28.226Z,3.92
2018-09-11T23:59:57.493Z,4.10
